sensor_id;sensor_type;location;lat;lon;timestamp;pressure;altitude;pressure_sealevel;temperature;humidity
78373;BME280;67656;52.074;4.758;2023-02-28T00:01:46;103234.53;;;0.41;100.00
78373;BME280;67656;52.074;4.758;2023-02-28T00:06:46;103239.16;;;0.47;100.00
78373;BME280;67656;52.074;4.758;2023-02-28T00:11:47;103241.59;;;0.60;100.00
78373;BME280;67656;52.074;4.758;2023-02-28T00:16:47;103242.03;;;0.69;100.00
78373;BME280;67656;52.074;4.758;2023-02-28T00:21:47;103240.66;;;0.76;100.00
78373;BME280;67656;52.074;4.758;2023-02-28T00:26:47;103239.69;;;0.74;100.00
78373;BME280;67656;52.074;4.758;2023-02-28T00:31:48;103242.25;;;0.90;100.00
78373;BME280;67656;52.074;4.758;2023-02-28T00:36:48;103241.75;;;0.98;100.00
78373;BME280;67656;52.074;4.758;2023-02-28T00:41:49;103239.31;;;1.01;100.00
78373;BME280;67656;52.074;4.758;2023-02-28T00:46:49;103237.97;;;1.09;100.00
78373;BME280;67656;52.074;4.758;2023-02-28T00:51:50;103232.94;;;1.12;100.00
78373;BME280;67656;52.074;4.758;2023-02-28T00:56:50;103237.47;;;1.16;100.00
78373;BME280;67656;52.074;4.758;2023-02-28T01:01:51;103236.06;;;1.23;100.00
78373;BME280;67656;52.074;4.758;2023-02-28T01:06:51;103244.53;;;1.37;100.00
78373;BME280;67656;52.074;4.758;2023-02-28T01:11:51;103239.06;;;1.31;100.00
78373;BME280;67656;52.074;4.758;2023-02-28T01:16:52;103239.56;;;1.23;100.00
78373;BME280;67656;52.074;4.758;2023-02-28T01:21:52;103241.06;;;1.18;100.00
78373;BME280;67656;52.074;4.758;2023-02-28T01:26:52;103243.13;;;1.26;100.00
78373;BME280;67656;52.074;4.758;2023-02-28T01:31:55;103232.19;;;1.33;100.00
78373;BME280;67656;52.074;4.758;2023-02-28T01:36:55;103240.69;;;1.29;100.00
78373;BME280;67656;52.074;4.758;2023-02-28T01:41:55;103237.38;;;1.33;100.00
78373;BME280;67656;52.074;4.758;2023-02-28T01:46:56;103236.56;;;1.34;100.00
78373;BME280;67656;52.074;4.758;2023-02-28T01:51:56;103225.34;;;1.35;100.00
78373;BME280;67656;52.074;4.758;2023-02-28T01:57:06;103228.13;;;1.38;100.00
78373;BME280;67656;52.074;4.758;2023-02-28T02:02:09;103224.84;;;1.42;100.00
78373;BME280;67656;52.074;4.758;2023-02-28T02:07:10;103217.47;;;1.51;100.00
78373;BME280;67656;52.074;4.758;2023-02-28T02:12:26;103217.84;;;1.59;100.00
78373;BME280;67656;52.074;4.758;2023-02-28T02:17:39;103210.09;;;1.61;100.00
78373;BME280;67656;52.074;4.758;2023-02-28T02:22:52;103208.84;;;1.52;100.00
78373;BME280;67656;52.074;4.758;2023-02-28T02:39:07;103194.72;;;1.47;100.00
78373;BME280;67656;52.074;4.758;2023-02-28T02:44:20;103188.69;;;1.48;100.00
78373;BME280;67656;52.074;4.758;2023-02-28T02:49:26;103197.47;;;1.50;100.00
78373;BME280;67656;52.074;4.758;2023-02-28T02:54:33;103201.22;;;1.56;100.00
78373;BME280;67656;52.074;4.758;2023-02-28T02:59:38;103195.41;;;1.61;100.00
78373;BME280;67656;52.074;4.758;2023-02-28T03:04:43;103195.59;;;1.66;100.00
78373;BME280;67656;52.074;4.758;2023-02-28T03:09:52;103204.38;;;1.68;100.00
78373;BME280;67656;52.074;4.758;2023-02-28T03:15:09;103206.91;;;1.66;100.00
78373;BME280;67656;52.074;4.758;2023-02-28T03:25:27;103209.59;;;1.68;100.00
78373;BME280;67656;52.074;4.758;2023-02-28T03:30:51;103208.69;;;1.67;100.00
78373;BME280;67656;52.074;4.758;2023-02-28T03:35:55;103208.63;;;1.66;100.00
78373;BME280;67656;52.074;4.758;2023-02-28T03:41:04;103202.44;;;1.64;100.00
78373;BME280;67656;52.074;4.758;2023-02-28T03:46:09;103199.19;;;1.68;100.00
78373;BME280;67656;52.074;4.758;2023-02-28T03:51:10;103211.66;;;1.75;100.00
78373;BME280;67656;52.074;4.758;2023-02-28T03:56:19;103196.25;;;1.80;100.00
78373;BME280;67656;52.074;4.758;2023-02-28T04:01:35;103199.75;;;1.80;100.00
78373;BME280;67656;52.074;4.758;2023-02-28T04:06:38;103192.59;;;1.76;100.00
78373;BME280;67656;52.074;4.758;2023-02-28T04:11:40;103184.84;;;1.78;100.00
78373;BME280;67656;52.074;4.758;2023-02-28T04:16:42;103194.38;;;1.77;100.00
78373;BME280;67656;52.074;4.758;2023-02-28T04:21:44;103201.94;;;1.91;100.00
78373;BME280;67656;52.074;4.758;2023-02-28T04:26:47;103208.78;;;1.89;100.00
78373;BME280;67656;52.074;4.758;2023-02-28T04:31:47;103203.59;;;1.89;100.00
78373;BME280;67656;52.074;4.758;2023-02-28T04:36:48;103212.63;;;1.97;100.00
78373;BME280;67656;52.074;4.758;2023-02-28T04:41:48;103211.84;;;2.18;100.00
78373;BME280;67656;52.074;4.758;2023-02-28T04:46:49;103206.69;;;1.99;100.00
78373;BME280;67656;52.074;4.758;2023-02-28T04:51:49;103218.94;;;1.82;100.00
78373;BME280;67656;52.074;4.758;2023-02-28T04:56:50;103210.41;;;1.67;100.00
78373;BME280;67656;52.074;4.758;2023-02-28T05:01:50;103231.75;;;1.60;100.00
78373;BME280;67656;52.074;4.758;2023-02-28T05:06:50;103209.28;;;1.62;100.00
78373;BME280;67656;52.074;4.758;2023-02-28T05:11:51;103222.16;;;1.59;100.00
78373;BME280;67656;52.074;4.758;2023-02-28T05:16:51;103223.13;;;1.61;100.00
78373;BME280;67656;52.074;4.758;2023-02-28T05:21:55;103221.22;;;1.57;100.00
78373;BME280;67656;52.074;4.758;2023-02-28T05:26:56;103216.00;;;1.57;100.00
78373;BME280;67656;52.074;4.758;2023-02-28T05:31:56;103217.91;;;1.61;100.00
78373;BME280;67656;52.074;4.758;2023-02-28T05:36:56;103213.53;;;1.60;100.00
78373;BME280;67656;52.074;4.758;2023-02-28T05:41:56;103228.94;;;1.55;100.00
78373;BME280;67656;52.074;4.758;2023-02-28T05:46:57;103224.31;;;1.49;100.00
78373;BME280;67656;52.074;4.758;2023-02-28T05:51:57;103223.88;;;1.40;100.00
78373;BME280;67656;52.074;4.758;2023-02-28T05:56:57;103224.47;;;1.34;100.00
78373;BME280;67656;52.074;4.758;2023-02-28T06:01:58;103221.91;;;1.00;100.00
78373;BME280;67656;52.074;4.758;2023-02-28T06:06:58;103228.88;;;0.83;100.00
78373;BME280;67656;52.074;4.758;2023-02-28T06:11:59;103220.38;;;0.69;100.00
78373;BME280;67656;52.074;4.758;2023-02-28T06:17:00;103215.00;;;0.66;100.00
78373;BME280;67656;52.074;4.758;2023-02-28T06:22:00;103214.69;;;0.59;100.00
78373;BME280;67656;52.074;4.758;2023-02-28T06:27:01;103216.97;;;0.53;100.00
78373;BME280;67656;52.074;4.758;2023-02-28T06:32:01;103219.75;;;0.56;100.00
78373;BME280;67656;52.074;4.758;2023-02-28T06:37:02;103231.25;;;0.45;100.00
78373;BME280;67656;52.074;4.758;2023-02-28T06:42:02;103237.47;;;0.30;100.00
78373;BME280;67656;52.074;4.758;2023-02-28T06:47:04;103247.19;;;0.18;100.00
78373;BME280;67656;52.074;4.758;2023-02-28T06:52:05;103250.81;;;0.05;100.00
78373;BME280;67656;52.074;4.758;2023-02-28T06:57:06;103271.59;;;0.05;100.00
78373;BME280;67656;52.074;4.758;2023-02-28T07:02:07;103270.91;;;-0.07;100.00
78373;BME280;67656;52.074;4.758;2023-02-28T07:07:08;103269.16;;;-0.23;100.00
78373;BME280;67656;52.074;4.758;2023-02-28T07:12:08;103273.19;;;-0.28;100.00
78373;BME280;67656;52.074;4.758;2023-02-28T07:17:09;103283.44;;;-0.32;100.00
78373;BME280;67656;52.074;4.758;2023-02-28T07:22:10;103291.41;;;-0.43;100.00
78373;BME280;67656;52.074;4.758;2023-02-28T07:27:10;103283.53;;;-0.45;100.00
78373;BME280;67656;52.074;4.758;2023-02-28T07:32:11;103283.16;;;-0.51;100.00
78373;BME280;67656;52.074;4.758;2023-02-28T07:37:11;103291.75;;;-0.52;100.00
78373;BME280;67656;52.074;4.758;2023-02-28T07:42:11;103290.94;;;-0.51;100.00
78373;BME280;67656;52.074;4.758;2023-02-28T07:47:13;103291.94;;;-0.49;100.00
78373;BME280;67656;52.074;4.758;2023-02-28T07:52:13;103292.75;;;-0.50;100.00
78373;BME280;67656;52.074;4.758;2023-02-28T07:57:13;103297.13;;;-0.49;100.00
78373;BME280;67656;52.074;4.758;2023-02-28T08:02:15;103286.81;;;-0.48;100.00
78373;BME280;67656;52.074;4.758;2023-02-28T08:07:16;103285.41;;;-0.42;100.00
78373;BME280;67656;52.074;4.758;2023-02-28T08:12:17;103286.03;;;-0.32;100.00
78373;BME280;67656;52.074;4.758;2023-02-28T08:17:17;103285.06;;;-0.17;100.00
78373;BME280;67656;52.074;4.758;2023-02-28T08:22:18;103274.88;;;-0.14;100.00
78373;BME280;67656;52.074;4.758;2023-02-28T08:27:18;103277.09;;;-0.05;100.00
78373;BME280;67656;52.074;4.758;2023-02-28T08:32:18;103282.69;;;0.03;100.00
78373;BME280;67656;52.074;4.758;2023-02-28T08:37:19;103276.03;;;0.08;100.00
78373;BME280;67656;52.074;4.758;2023-02-28T08:42:19;103289.44;;;0.15;100.00
78373;BME280;67656;52.074;4.758;2023-02-28T08:47:19;103277.78;;;0.24;100.00
78373;BME280;67656;52.074;4.758;2023-02-28T08:52:20;103279.09;;;0.32;100.00
78373;BME280;67656;52.074;4.758;2023-02-28T08:57:23;103274.63;;;0.46;100.00
78373;BME280;67656;52.074;4.758;2023-02-28T09:02:25;103273.47;;;0.57;100.00
78373;BME280;67656;52.074;4.758;2023-02-28T09:09:46;103285.66;;;0.75;100.00
78373;BME280;67656;52.074;4.758;2023-02-28T09:14:46;103285.88;;;0.96;100.00
78373;BME280;67656;52.074;4.758;2023-02-28T09:19:49;103283.97;;;1.10;100.00
78373;BME280;67656;52.074;4.758;2023-02-28T09:24:50;103283.88;;;0.90;100.00
78373;BME280;67656;52.074;4.758;2023-02-28T09:29:50;103297.47;;;1.19;100.00
78373;BME280;67656;52.074;4.758;2023-02-28T09:34:51;103297.31;;;1.16;100.00
78373;BME280;67656;52.074;4.758;2023-02-28T09:39:51;103305.91;;;1.15;100.00
78373;BME280;67656;52.074;4.758;2023-02-28T09:44:51;103292.72;;;1.29;100.00
78373;BME280;67656;52.074;4.758;2023-02-28T09:49:52;103303.31;;;1.50;100.00
78373;BME280;67656;52.074;4.758;2023-02-28T09:54:53;103302.72;;;1.56;100.00
78373;BME280;67656;52.074;4.758;2023-02-28T10:00:16;103296.81;;;1.78;100.00
78373;BME280;67656;52.074;4.758;2023-02-28T10:05:26;103299.72;;;1.66;100.00
78373;BME280;67656;52.074;4.758;2023-02-28T10:10:51;103279.78;;;1.84;100.00
78373;BME280;67656;52.074;4.758;2023-02-28T10:15:54;103289.13;;;1.99;100.00
78373;BME280;67656;52.074;4.758;2023-02-28T10:20:55;103288.97;;;1.96;100.00
78373;BME280;67656;52.074;4.758;2023-02-28T10:26:03;103277.38;;;2.07;100.00
78373;BME280;67656;52.074;4.758;2023-02-28T10:31:17;103278.66;;;2.55;100.00
78373;BME280;67656;52.074;4.758;2023-02-28T10:36:20;103278.31;;;2.47;100.00
78373;BME280;67656;52.074;4.758;2023-02-28T10:41:31;103273.31;;;2.92;100.00
78373;BME280;67656;52.074;4.758;2023-02-28T10:46:33;103262.91;;;3.56;100.00
78373;BME280;67656;52.074;4.758;2023-02-28T10:51:36;103261.25;;;3.58;100.00
78373;BME280;67656;52.074;4.758;2023-02-28T10:56:37;103254.91;;;3.97;100.00
78373;BME280;67656;52.074;4.758;2023-02-28T11:01:43;103251.16;;;3.67;100.00
78373;BME280;67656;52.074;4.758;2023-02-28T11:06:44;103249.09;;;3.60;100.00
78373;BME280;67656;52.074;4.758;2023-02-28T11:11:46;103235.13;;;3.58;100.00
78373;BME280;67656;52.074;4.758;2023-02-28T11:16:48;103234.94;;;4.23;100.00
78373;BME280;67656;52.074;4.758;2023-02-28T11:22:01;103224.13;;;4.37;100.00
78373;BME280;67656;52.074;4.758;2023-02-28T11:32:32;103223.56;;;4.70;100.00
78373;BME280;67656;52.074;4.758;2023-02-28T11:37:32;103211.31;;;4.44;100.00
78373;BME280;67656;52.074;4.758;2023-02-28T11:42:57;103213.53;;;4.58;100.00
78373;BME280;67656;52.074;4.758;2023-02-28T12:04:31;103191.63;;;4.54;95.67
78373;BME280;67656;52.074;4.758;2023-02-28T12:31:18;103182.47;;;4.67;85.29
78373;BME280;67656;52.074;4.758;2023-02-28T12:36:20;103179.63;;;4.59;80.27
78373;BME280;67656;52.074;4.758;2023-02-28T12:41:35;103163.66;;;4.78;79.53
78373;BME280;67656;52.074;4.758;2023-02-28T12:46:48;103170.06;;;4.87;78.83
78373;BME280;67656;52.074;4.758;2023-02-28T12:51:50;103170.69;;;5.06;79.10
78373;BME280;67656;52.074;4.758;2023-02-28T12:57:34;103159.91;;;5.24;86.05
78373;BME280;67656;52.074;4.758;2023-02-28T13:13:04;103137.66;;;5.11;71.21
78373;BME280;67656;52.074;4.758;2023-02-28T13:18:04;103133.91;;;5.30;77.11
78373;BME280;67656;52.074;4.758;2023-02-28T13:28:58;103131.56;;;5.11;95.25
78373;BME280;67656;52.074;4.758;2023-02-28T13:34:13;103118.38;;;5.36;83.87
78373;BME280;67656;52.074;4.758;2023-02-28T13:50:21;103102.91;;;5.44;59.97
78373;BME280;67656;52.074;4.758;2023-02-28T13:55:36;103102.84;;;5.43;59.50
78373;BME280;67656;52.074;4.758;2023-02-28T14:06:23;103104.56;;;5.41;60.24
78373;BME280;67656;52.074;4.758;2023-02-28T14:11:36;103090.28;;;5.31;57.74
78373;BME280;67656;52.074;4.758;2023-02-28T14:16:41;103083.06;;;5.52;60.92
78373;BME280;67656;52.074;4.758;2023-02-28T14:27:28;103075.19;;;5.51;58.52
78373;BME280;67656;52.074;4.758;2023-02-28T14:38:21;103069.69;;;5.74;60.98
78373;BME280;67656;52.074;4.758;2023-02-28T14:43:48;103069.22;;;5.57;59.79
78373;BME280;67656;52.074;4.758;2023-02-28T14:48:49;103062.38;;;5.62;63.36
78373;BME280;67656;52.074;4.758;2023-02-28T14:53:57;103070.91;;;5.54;60.20
78373;BME280;67656;52.074;4.758;2023-02-28T14:58:59;103065.91;;;5.64;61.02
78373;BME280;67656;52.074;4.758;2023-02-28T15:04:02;103071.44;;;5.73;59.82
78373;BME280;67656;52.074;4.758;2023-02-28T15:09:17;103062.56;;;5.68;61.79
78373;BME280;67656;52.074;4.758;2023-02-28T15:14:19;103071.84;;;5.57;58.57
78373;BME280;67656;52.074;4.758;2023-02-28T15:19:30;103075.25;;;5.84;72.39
78373;BME280;67656;52.074;4.758;2023-02-28T15:24:44;103086.22;;;6.02;88.97
78373;BME280;67656;52.074;4.758;2023-02-28T15:29:49;103078.28;;;5.68;97.42
78373;BME280;67656;52.074;4.758;2023-02-28T15:34:50;103082.41;;;5.92;100.00
78373;BME280;67656;52.074;4.758;2023-02-28T15:39:51;103087.09;;;5.12;100.00
78373;BME280;67656;52.074;4.758;2023-02-28T15:44:52;103087.94;;;5.11;100.00
78373;BME280;67656;52.074;4.758;2023-02-28T15:50:00;103088.69;;;5.07;100.00
78373;BME280;67656;52.074;4.758;2023-02-28T15:55:19;103082.50;;;5.03;100.00
78373;BME280;67656;52.074;4.758;2023-02-28T16:00:23;103085.00;;;4.73;100.00
78373;BME280;67656;52.074;4.758;2023-02-28T16:05:27;103079.22;;;4.56;100.00
78373;BME280;67656;52.074;4.758;2023-02-28T16:10:28;103077.94;;;4.43;100.00
78373;BME280;67656;52.074;4.758;2023-02-28T16:15:31;103081.69;;;4.25;100.00
78373;BME280;67656;52.074;4.758;2023-02-28T16:20:35;103081.41;;;4.18;100.00
78373;BME280;67656;52.074;4.758;2023-02-28T16:25:38;103089.56;;;4.01;100.00
78373;BME280;67656;52.074;4.758;2023-02-28T16:30:38;103084.63;;;3.84;100.00
78373;BME280;67656;52.074;4.758;2023-02-28T16:35:39;103086.75;;;3.71;100.00
78373;BME280;67656;52.074;4.758;2023-02-28T16:40:39;103098.28;;;3.53;100.00
78373;BME280;67656;52.074;4.758;2023-02-28T16:45:40;103104.19;;;3.49;100.00
78373;BME280;67656;52.074;4.758;2023-02-28T16:50:44;103092.28;;;3.33;100.00
78373;BME280;67656;52.074;4.758;2023-02-28T16:55:45;103103.69;;;3.12;100.00
78373;BME280;67656;52.074;4.758;2023-02-28T17:00:48;103102.06;;;2.93;100.00
78373;BME280;67656;52.074;4.758;2023-02-28T17:05:49;103105.81;;;2.79;100.00
78373;BME280;67656;52.074;4.758;2023-02-28T17:10:49;103112.19;;;2.64;100.00
78373;BME280;67656;52.074;4.758;2023-02-28T17:15:50;103106.22;;;2.45;100.00
78373;BME280;67656;52.074;4.758;2023-02-28T17:20:50;103125.44;;;2.28;100.00
78373;BME280;67656;52.074;4.758;2023-02-28T17:25:51;103123.94;;;2.13;100.00
78373;BME280;67656;52.074;4.758;2023-02-28T17:30:51;103134.03;;;2.06;100.00
78373;BME280;67656;52.074;4.758;2023-02-28T17:35:57;103135.25;;;1.94;100.00
78373;BME280;67656;52.074;4.758;2023-02-28T17:40:58;103144.25;;;1.81;100.00
78373;BME280;67656;52.074;4.758;2023-02-28T17:45:58;103149.56;;;1.65;100.00
78373;BME280;67656;52.074;4.758;2023-02-28T17:50:59;103165.44;;;1.51;100.00
78373;BME280;67656;52.074;4.758;2023-02-28T17:55:59;103168.28;;;1.38;100.00
78373;BME280;67656;52.074;4.758;2023-02-28T18:01:00;103169.63;;;1.30;100.00
78373;BME280;67656;52.074;4.758;2023-02-28T18:06:01;103176.47;;;1.28;100.00
78373;BME280;67656;52.074;4.758;2023-02-28T18:11:03;103174.97;;;1.15;100.00
78373;BME280;67656;52.074;4.758;2023-02-28T18:16:04;103181.28;;;1.02;100.00
78373;BME280;67656;52.074;4.758;2023-02-28T18:21:06;103191.53;;;0.99;100.00
78373;BME280;67656;52.074;4.758;2023-02-28T18:26:09;103188.31;;;0.86;100.00
78373;BME280;67656;52.074;4.758;2023-02-28T18:31:16;103190.28;;;0.74;100.00
78373;BME280;67656;52.074;4.758;2023-02-28T18:36:20;103195.59;;;0.75;100.00
78373;BME280;67656;52.074;4.758;2023-02-28T18:41:30;103199.41;;;0.66;100.00
78373;BME280;67656;52.074;4.758;2023-02-28T18:46:31;103214.09;;;0.65;100.00
78373;BME280;67656;52.074;4.758;2023-02-28T18:51:31;103205.50;;;0.66;100.00
78373;BME280;67656;52.074;4.758;2023-02-28T18:56:31;103209.34;;;0.56;100.00
78373;BME280;67656;52.074;4.758;2023-02-28T19:01:42;103216.97;;;0.37;100.00
78373;BME280;67656;52.074;4.758;2023-02-28T19:06:46;103211.88;;;0.22;100.00
78373;BME280;67656;52.074;4.758;2023-02-28T19:11:49;103212.84;;;0.07;100.00
78373;BME280;67656;52.074;4.758;2023-02-28T19:17:00;103206.44;;;0.01;100.00
78373;BME280;67656;52.074;4.758;2023-02-28T19:22:00;103206.91;;;-0.07;100.00
78373;BME280;67656;52.074;4.758;2023-02-28T19:27:01;103210.75;;;0.00;100.00
78373;BME280;67656;52.074;4.758;2023-02-28T19:32:01;103210.75;;;0.00;100.00
78373;BME280;67656;52.074;4.758;2023-02-28T19:37:01;103213.34;;;0.00;100.00
78373;BME280;67656;52.074;4.758;2023-02-28T19:42:02;103219.72;;;0.07;100.00
78373;BME280;67656;52.074;4.758;2023-02-28T19:47:02;103224.66;;;0.02;100.00
78373;BME280;67656;52.074;4.758;2023-02-28T19:52:03;103229.56;;;-0.04;100.00
78373;BME280;67656;52.074;4.758;2023-02-28T19:57:03;103224.91;;;-0.10;100.00
78373;BME280;67656;52.074;4.758;2023-02-28T20:02:04;103227.59;;;-0.08;100.00
78373;BME280;67656;52.074;4.758;2023-02-28T20:07:05;103215.00;;;-0.17;100.00
78373;BME280;67656;52.074;4.758;2023-02-28T20:12:05;103222.94;;;-0.14;100.00
78373;BME280;67656;52.074;4.758;2023-02-28T20:17:06;103222.00;;;0.01;100.00
78373;BME280;67656;52.074;4.758;2023-02-28T20:22:06;103225.34;;;-0.02;100.00
78373;BME280;67656;52.074;4.758;2023-02-28T20:27:07;103221.94;;;-0.01;100.00
78373;BME280;67656;52.074;4.758;2023-02-28T20:32:07;103225.09;;;-0.07;100.00
78373;BME280;67656;52.074;4.758;2023-02-28T20:37:08;103236.56;;;-0.18;100.00
78373;BME280;67656;52.074;4.758;2023-02-28T20:42:08;103233.28;;;-0.31;100.00
78373;BME280;67656;52.074;4.758;2023-02-28T20:47:08;103238.16;;;-0.37;100.00
78373;BME280;67656;52.074;4.758;2023-02-28T20:52:09;103235.19;;;-0.43;100.00
78373;BME280;67656;52.074;4.758;2023-02-28T20:57:09;103241.97;;;-0.62;100.00
78373;BME280;67656;52.074;4.758;2023-02-28T21:02:14;103246.78;;;-0.68;100.00
78373;BME280;67656;52.074;4.758;2023-02-28T21:07:14;103256.00;;;-0.58;100.00
78373;BME280;67656;52.074;4.758;2023-02-28T21:12:15;103246.53;;;-0.57;100.00
78373;BME280;67656;52.074;4.758;2023-02-28T21:17:15;103254.09;;;-0.45;100.00
78373;BME280;67656;52.074;4.758;2023-02-28T21:22:15;103253.91;;;-0.49;100.00
78373;BME280;67656;52.074;4.758;2023-02-28T21:27:16;103264.41;;;-0.47;100.00
78373;BME280;67656;52.074;4.758;2023-02-28T21:32:16;103270.03;;;-0.54;100.00
78373;BME280;67656;52.074;4.758;2023-02-28T21:37:16;103266.91;;;-0.64;100.00
78373;BME280;67656;52.074;4.758;2023-02-28T21:42:17;103270.50;;;-0.62;100.00
78373;BME280;67656;52.074;4.758;2023-02-28T21:47:17;103267.38;;;-0.71;100.00
78373;BME280;67656;52.074;4.758;2023-02-28T21:52:17;103268.00;;;-0.90;100.00
78373;BME280;67656;52.074;4.758;2023-02-28T21:57:18;103271.75;;;-0.85;100.00
78373;BME280;67656;52.074;4.758;2023-02-28T22:02:18;103269.50;;;-0.94;100.00
78373;BME280;67656;52.074;4.758;2023-02-28T22:07:18;103265.38;;;-1.05;100.00
78373;BME280;67656;52.074;4.758;2023-02-28T22:12:19;103263.78;;;-1.03;100.00
78373;BME280;67656;52.074;4.758;2023-02-28T22:17:19;103257.44;;;-1.08;100.00
78373;BME280;67656;52.074;4.758;2023-02-28T22:22:19;103255.28;;;-1.15;100.00
78373;BME280;67656;52.074;4.758;2023-02-28T22:27:19;103263.31;;;-1.11;100.00
78373;BME280;67656;52.074;4.758;2023-02-28T22:32:20;103270.09;;;-1.28;100.00
78373;BME280;67656;52.074;4.758;2023-02-28T22:37:20;103281.63;;;-1.22;100.00
78373;BME280;67656;52.074;4.758;2023-02-28T22:42:20;103278.59;;;-1.15;100.00
78373;BME280;67656;52.074;4.758;2023-02-28T22:47:21;103294.75;;;-1.19;100.00
78373;BME280;67656;52.074;4.758;2023-02-28T22:52:21;103291.56;;;-1.15;100.00
78373;BME280;67656;52.074;4.758;2023-02-28T22:57:21;103294.75;;;-1.19;100.00
78373;BME280;67656;52.074;4.758;2023-02-28T23:02:22;103294.41;;;-1.26;100.00
78373;BME280;67656;52.074;4.758;2023-02-28T23:07:22;103284.22;;;-1.22;100.00
78373;BME280;67656;52.074;4.758;2023-02-28T23:12:22;103270.94;;;-1.42;100.00
78373;BME280;67656;52.074;4.758;2023-02-28T23:17:23;103284.34;;;-1.49;100.00
78373;BME280;67656;52.074;4.758;2023-02-28T23:22:23;103275.81;;;-1.62;100.00
78373;BME280;67656;52.074;4.758;2023-02-28T23:27:23;103279.88;;;-1.52;100.00
78373;BME280;67656;52.074;4.758;2023-02-28T23:32:24;103284.69;;;-1.43;100.00
78373;BME280;67656;52.074;4.758;2023-02-28T23:37:24;103276.81;;;-1.60;100.00
78373;BME280;67656;52.074;4.758;2023-02-28T23:42:25;103286.56;;;-1.69;100.00
78373;BME280;67656;52.074;4.758;2023-02-28T23:47:25;103291.91;;;-1.52;100.00
78373;BME280;67656;52.074;4.758;2023-02-28T23:52:25;103291.31;;;-1.48;100.00
78373;BME280;67656;52.074;4.758;2023-02-28T23:57:27;103306.47;;;-1.55;100.00
